createdAt,value
2023-03-19T00:00:40.047Z,56.00
2023-03-19T00:03:27.610Z,56.50
2023-03-19T00:05:54.822Z,51.50
2023-03-19T00:08:22.946Z,52.75
2023-03-19T00:10:50.192Z,46.00
2023-03-19T00:13:17.913Z,54.25
2023-03-19T00:15:45.361Z,55.00
2023-03-19T00:18:13.045Z,56.50
2023-03-19T00:20:40.122Z,48.00
2023-03-19T00:23:07.432Z,34.25
2023-03-19T00:25:34.502Z,46.50
2023-03-19T00:28:02.132Z,47.50
2023-03-19T00:30:29.421Z,43.00
2023-03-19T00:32:57.468Z,42.25
2023-03-19T00:35:24.820Z,48.00
2023-03-19T00:37:52.825Z,45.25
2023-03-19T00:40:19.857Z,39.00
2023-03-19T00:42:47.300Z,55.25
2023-03-19T00:45:14.371Z,52.00
2023-03-19T00:47:42.345Z,58.50
2023-03-19T00:50:10.315Z,45.00
2023-03-19T00:52:37.469Z,47.50
2023-03-19T00:55:05.034Z,45.50
2023-03-19T00:57:32.451Z,41.50
2023-03-19T00:59:59.398Z,57.50
2023-03-19T01:02:26.831Z,53.00
2023-03-19T01:04:54.337Z,45.00
2023-03-19T01:07:23.015Z,49.00
2023-03-19T01:09:51.185Z,37.25
2023-03-19T01:12:19.580Z,38.50
2023-03-19T01:14:46.576Z,39.00
2023-03-19T01:17:13.842Z,35.75
2023-03-19T01:19:40.954Z,46.00
2023-03-19T01:22:08.438Z,43.00
2023-03-19T01:24:35.909Z,39.25
2023-03-19T01:27:03.295Z,37.75
2023-03-19T01:29:30.464Z,31.00
2023-03-19T01:31:58.203Z,37.25
2023-03-19T01:34:25.363Z,29.50
2023-03-19T01:36:52.739Z,31.00
2023-03-19T01:39:20.123Z,31.75
2023-03-19T01:41:47.561Z,33.75
2023-03-19T01:44:48.066Z,34.75
2023-03-19T01:47:16.705Z,21.00
2023-03-19T01:49:45.951Z,30.25
2023-03-19T01:52:13.935Z,23.00
2023-03-19T01:54:41.374Z,26.50
2023-03-19T01:57:14.117Z,39.25
2023-03-19T01:59:44.905Z,45.50
2023-03-19T02:02:21.201Z,48.00
2023-03-19T02:05:01.887Z,40.75
2023-03-19T02:07:31.024Z,35.75
2023-03-19T02:09:59.384Z,32.00
2023-03-19T02:12:26.863Z,29.75
2023-03-19T02:14:53.995Z,26.25
2023-03-19T02:17:22.296Z,24.25
2023-03-19T02:19:49.457Z,36.75
2023-03-19T02:22:19.688Z,38.75
2023-03-19T02:25:07.251Z,33.75
2023-03-19T02:27:34.811Z,34.00
2023-03-19T02:30:25.729Z,30.25
2023-03-19T02:32:53.315Z,33.00
2023-03-19T02:35:20.407Z,36.25
2023-03-19T02:37:47.954Z,26.00
2023-03-19T02:40:21.881Z,23.25
2023-03-19T02:42:49.667Z,32.50
2023-03-19T02:45:17.164Z,34.50
2023-03-19T02:47:44.520Z,38.50
2023-03-19T02:50:12.135Z,43.00
2023-03-19T02:52:39.670Z,39.00
2023-03-19T02:55:08.051Z,34.25
2023-03-19T02:57:35.695Z,31.00
2023-03-19T03:00:04.496Z,37.25
2023-03-19T03:02:31.970Z,40.00
2023-03-19T03:04:59.036Z,47.25
2023-03-19T03:07:27.215Z,52.25
2023-03-19T03:09:55.534Z,28.50
2023-03-19T03:12:22.886Z,46.00
2023-03-19T03:14:50.098Z,52.00
2023-03-19T03:17:17.472Z,53.75
2023-03-19T03:19:44.401Z,52.00
2023-03-19T03:22:11.947Z,46.00
2023-03-19T03:24:39.397Z,49.25
2023-03-19T03:27:06.822Z,48.75
2023-03-19T03:29:34.220Z,43.00
2023-03-19T03:32:01.525Z,43.00
2023-03-19T03:34:28.479Z,41.00
2023-03-19T03:36:55.976Z,49.00
2023-03-19T03:39:23.239Z,39.75
2023-03-19T03:41:50.651Z,41.75
2023-03-19T03:44:18.324Z,35.25
2023-03-19T03:46:45.732Z,25.25
2023-03-19T03:49:12.859Z,43.75
2023-03-19T03:51:41.268Z,19.50
2023-03-19T03:54:08.388Z,32.50
2023-03-19T03:56:35.946Z,37.00
2023-03-19T03:59:04.219Z,30.25
2023-03-19T04:01:31.523Z,41.75
2023-03-19T04:03:58.626Z,36.25
2023-03-19T04:06:27.329Z,29.25
2023-03-19T04:08:54.384Z,30.00
2023-03-19T04:11:21.546Z,30.75
2023-03-19T04:13:48.991Z,30.25
2023-03-19T04:16:16.919Z,38.75
2023-03-19T04:18:44.961Z,42.50
2023-03-19T04:21:12.576Z,42.75
2023-03-19T04:23:40.650Z,44.00
2023-03-19T04:26:08.148Z,41.75
2023-03-19T04:28:35.348Z,43.25
2023-03-19T04:31:04.736Z,40.25
2023-03-19T04:33:32.515Z,29.00
2023-03-19T04:36:00.069Z,30.50
2023-03-19T04:38:29.335Z,31.25
2023-03-19T04:40:56.992Z,24.75
2023-03-19T04:43:27.748Z,25.50
2023-03-19T04:45:55.082Z,28.25
2023-03-19T04:48:22.416Z,29.00
2023-03-19T04:50:52.353Z,29.50
2023-03-19T04:53:22.766Z,38.25
2023-03-19T04:55:50.113Z,55.50
2023-03-19T04:58:19.018Z,57.50
2023-03-19T05:00:47.644Z,50.50
2023-03-19T05:03:15.485Z,54.75
2023-03-19T05:05:43.424Z,57.75
2023-03-19T05:08:11.670Z,58.50
2023-03-19T05:10:38.869Z,37.00
2023-03-19T05:13:07.325Z,49.00
2023-03-19T05:15:34.682Z,51.50
2023-03-19T05:18:01.916Z,55.75
2023-03-19T05:20:29.880Z,46.50
2023-03-19T05:22:56.989Z,47.75
2023-03-19T05:25:24.668Z,42.75
2023-03-19T05:27:51.845Z,43.00
2023-03-19T05:30:19.253Z,41.25
2023-03-19T05:32:47.480Z,53.25
2023-03-19T05:35:15.497Z,56.50
2023-03-19T05:37:42.602Z,56.50
2023-03-19T05:40:16.861Z,58.25
2023-03-19T05:42:44.004Z,81.00
2023-03-19T05:45:12.027Z,75.00
2023-03-19T05:47:39.413Z,69.00
2023-03-19T05:50:08.005Z,77.00
2023-03-19T05:52:35.097Z,71.25
2023-03-19T05:55:02.540Z,70.50
2023-03-19T05:57:29.617Z,78.50
2023-03-19T05:59:56.991Z,67.50
2023-03-19T06:02:24.124Z,69.00
2023-03-19T06:04:51.612Z,71.00
2023-03-19T06:07:18.976Z,72.50
2023-03-19T06:09:46.838Z,68.50
2023-03-19T06:12:13.968Z,66.25
2023-03-19T06:14:41.279Z,60.25
2023-03-19T06:17:09.482Z,71.25
2023-03-19T06:19:37.155Z,69.00
2023-03-19T06:22:07.787Z,70.50
2023-03-19T06:24:35.225Z,71.75
2023-03-19T06:27:02.233Z,84.25
2023-03-19T06:29:29.664Z,63.00
2023-03-19T06:31:58.259Z,70.75
2023-03-19T06:34:25.738Z,72.00
2023-03-19T06:36:53.915Z,68.25
2023-03-19T06:39:21.344Z,76.50
2023-03-19T06:41:48.791Z,76.00
2023-03-19T06:44:16.627Z,73.00
2023-03-19T06:46:43.795Z,85.00
2023-03-19T06:49:11.485Z,78.75
2023-03-19T06:51:38.469Z,75.00
2023-03-19T06:54:06.106Z,60.00
2023-03-19T06:56:33.425Z,69.00
2023-03-19T06:59:01.034Z,63.25
2023-03-19T07:01:28.346Z,63.50
2023-03-19T07:03:57.401Z,58.25
2023-03-19T07:06:24.430Z,58.50
2023-03-19T07:08:51.720Z,62.50
2023-03-19T07:11:18.835Z,59.25
2023-03-19T07:13:47.298Z,63.75
2023-03-19T07:16:14.282Z,50.00
2023-03-19T07:18:41.678Z,51.75
2023-03-19T07:21:08.625Z,51.25
2023-03-19T07:23:36.318Z,49.75
2023-03-19T07:26:03.677Z,50.25
2023-03-19T07:28:30.973Z,52.00
2023-03-19T07:30:58.231Z,48.50
2023-03-19T07:33:25.672Z,51.75
2023-03-19T07:35:52.878Z,49.00
2023-03-19T07:38:20.565Z,52.50
2023-03-19T07:41:01.021Z,54.50
2023-03-19T07:43:28.966Z,52.25
2023-03-19T07:45:56.132Z,51.00
2023-03-19T07:48:23.763Z,51.75
2023-03-19T07:50:51.747Z,43.00
2023-03-19T07:53:19.362Z,42.50
2023-03-19T07:55:47.637Z,43.75
2023-03-19T07:58:15.323Z,40.75
2023-03-19T08:00:44.978Z,43.00
2023-03-19T08:03:12.710Z,18.75
2023-03-19T08:05:43.652Z,19.00
2023-03-19T08:08:11.168Z,19.50
2023-03-19T08:10:39.195Z,21.25
2023-03-19T08:13:07.177Z,17.50
2023-03-19T08:15:34.863Z,16.33
2023-03-19T08:18:04.245Z,11.67
2023-03-19T08:20:32.211Z,14.33
2023-03-19T08:22:59.875Z,18.00
2023-03-19T08:25:27.697Z,17.67
2023-03-19T08:27:55.004Z,13.00
2023-03-19T08:30:23.132Z,16.33
2023-03-19T08:32:50.686Z,16.33
2023-03-19T08:35:18.084Z,14.67
2023-03-19T08:37:45.554Z,16.67
2023-03-19T08:40:13.085Z,16.00
2023-03-19T08:42:44.441Z,18.33
2023-03-19T08:45:13.664Z,18.67
2023-03-19T08:47:41.656Z,19.33
2023-03-19T08:50:10.602Z,14.67
2023-03-19T08:52:38.191Z,23.33
2023-03-19T08:55:05.707Z,14.67
2023-03-19T08:57:33.594Z,18.00
2023-03-19T09:00:02.186Z,18.33
2023-03-19T09:02:29.571Z,11.67
2023-03-19T09:04:56.906Z,13.00
2023-03-19T09:07:24.408Z,19.00
2023-03-19T09:09:52.464Z,14.00
2023-03-19T09:12:19.818Z,12.33
2023-03-19T09:14:47.133Z,12.33
2023-03-19T09:17:15.691Z,9.00
2023-03-19T09:19:42.710Z,10.00
2023-03-19T09:22:10.488Z,13.67
2023-03-19T09:24:40.399Z,9.67
2023-03-19T09:27:07.996Z,9.67
2023-03-19T09:29:35.310Z,14.67
2023-03-19T09:32:03.020Z,8.33
2023-03-19T09:34:30.109Z,16.33
2023-03-19T09:36:57.783Z,12.67
2023-03-19T09:39:24.866Z,11.33
2023-03-19T09:42:06.411Z,6.67
2023-03-19T09:44:39.649Z,12.00
2023-03-19T09:47:27.755Z,13.33
2023-03-19T09:50:07.568Z,16.00
2023-03-19T09:52:43.392Z,12.67
2023-03-19T09:55:27.960Z,8.67
2023-03-19T09:57:57.163Z,14.67
2023-03-19T10:00:24.783Z,10.33
2023-03-19T10:03:05.493Z,10.00
2023-03-19T10:06:04.300Z,9.67
2023-03-19T10:08:50.262Z,8.67
2023-03-19T10:11:45.071Z,9.00
2023-03-19T10:14:36.963Z,11.33
2023-03-19T10:17:08.522Z,6.67
2023-03-19T10:19:46.834Z,1.00
2023-03-19T10:22:22.317Z,10.67
2023-03-19T10:24:50.947Z,7.67
2023-03-19T10:27:23.635Z,12.67
2023-03-19T10:29:51.547Z,8.33
2023-03-19T10:32:20.423Z,8.00
2023-03-19T10:34:50.550Z,11.33
2023-03-19T10:37:27.101Z,8.00
2023-03-19T10:40:02.386Z,10.00
2023-03-19T10:43:05.116Z,6.00
2023-03-19T10:45:38.848Z,7.33
2023-03-19T10:48:07.073Z,10.00
2023-03-19T10:50:41.774Z,4.67
2023-03-19T10:53:14.878Z,7.67
2023-03-19T10:55:49.187Z,8.33
2023-03-19T10:58:23.333Z,10.00
2023-03-19T11:00:57.522Z,12.33
2023-03-19T11:03:32.471Z,8.25
2023-03-19T11:06:31.831Z,5.25
2023-03-19T11:09:20.546Z,8.75
2023-03-19T11:11:51.179Z,9.75
2023-03-19T11:14:21.776Z,7.67
2023-03-19T11:17:04.605Z,9.33
2023-03-19T11:19:35.654Z,9.67
2023-03-19T11:22:06.014Z,5.67
2023-03-19T11:24:34.439Z,8.67
2023-03-19T11:27:03.406Z,7.67
2023-03-19T11:29:31.250Z,7.00
2023-03-19T11:32:25.282Z,11.00
2023-03-19T11:35:14.901Z,7.33
2023-03-19T11:37:58.452Z,8.00
2023-03-19T11:40:45.314Z,5.00
2023-03-19T11:43:22.834Z,3.00
2023-03-19T11:46:11.682Z,4.75
2023-03-19T11:49:16.563Z,7.75
2023-03-19T11:51:52.734Z,5.25
2023-03-19T11:54:50.782Z,9.00
2023-03-19T11:57:52.152Z,8.25
2023-03-19T12:00:22.312Z,7.00
2023-03-19T12:03:19.060Z,7.50
2023-03-19T12:06:01.278Z,9.00
2023-03-19T12:08:38.868Z,10.75
2023-03-19T12:11:25.528Z,8.00
2023-03-19T12:14:04.645Z,7.00
2023-03-19T12:16:45.917Z,8.50
2023-03-19T12:19:13.688Z,9.50
2023-03-19T12:21:53.414Z,9.00
2023-03-19T12:24:48.308Z,7.50
2023-03-19T12:28:04.605Z,7.25
2023-03-19T12:30:35.236Z,6.00
2023-03-19T12:33:30.570Z,6.25
2023-03-19T12:35:59.092Z,9.25
2023-03-19T12:38:49.135Z,5.00
2023-03-19T12:41:22.326Z,7.00
2023-03-19T12:43:58.268Z,4.25
2023-03-19T12:46:30.589Z,7.25
2023-03-19T12:48:59.139Z,4.75
2023-03-19T12:51:30.220Z,7.50
2023-03-19T12:54:05.319Z,8.50
2023-03-19T12:56:40.387Z,7.25
2023-03-19T12:59:13.961Z,6.25
2023-03-19T13:01:45.746Z,5.00
2023-03-19T13:04:33.605Z,6.00
2023-03-19T13:07:09.229Z,11.25
2023-03-19T13:10:04.911Z,4.25
2023-03-19T13:12:33.749Z,8.50
2023-03-19T13:15:03.903Z,9.75
2023-03-19T13:17:54.457Z,4.75
2023-03-19T13:21:07.246Z,5.50
2023-03-19T13:23:37.196Z,6.00
2023-03-19T13:26:09.490Z,5.25
2023-03-19T13:28:55.591Z,5.25
2023-03-19T13:31:27.996Z,6.75
2023-03-19T13:34:04.242Z,7.25
2023-03-19T13:36:36.963Z,8.00
2023-03-19T13:39:04.116Z,6.50
2023-03-19T13:41:42.845Z,8.50
2023-03-19T13:44:22.235Z,6.00
2023-03-19T13:46:51.574Z,9.00
2023-03-19T13:49:35.921Z,10.00
2023-03-19T13:52:26.149Z,7.50
2023-03-19T13:54:58.286Z,5.50
2023-03-19T13:58:02.266Z,8.25
2023-03-19T14:00:42.997Z,4.75
2023-03-19T14:03:22.355Z,11.25
2023-03-19T14:05:53.102Z,7.00
2023-03-19T14:08:23.362Z,8.25
2023-03-19T14:10:53.960Z,7.50
2023-03-19T14:13:32.696Z,4.50
2023-03-19T14:16:26.977Z,7.00
2023-03-19T14:19:01.267Z,4.25
2023-03-19T14:21:36.219Z,6.50
2023-03-19T14:27:19.282Z,4.75
2023-03-19T14:29:47.415Z,7.25
2023-03-19T14:32:18.381Z,6.50
2023-03-19T14:34:47.185Z,1.50
2023-03-19T14:37:34.744Z,6.00
2023-03-19T14:40:27.782Z,7.00
2023-03-19T14:43:16.613Z,8.75
2023-03-19T14:46:13.596Z,6.50
2023-03-19T14:49:05.703Z,8.50
2023-03-19T14:51:59.280Z,11.00
2023-03-19T14:54:35.835Z,7.50
2023-03-19T14:57:33.416Z,7.25
2023-03-19T15:00:01.199Z,11.00
2023-03-19T15:02:38.236Z,11.25
2023-03-19T15:05:09.245Z,6.00
2023-03-19T15:07:44.152Z,8.00
2023-03-19T15:10:19.424Z,8.75
2023-03-19T15:13:02.536Z,4.75
2023-03-19T15:15:51.897Z,9.75
2023-03-19T15:18:21.327Z,6.00
2023-03-19T15:20:54.677Z,9.00
2023-03-19T15:23:29.262Z,7.25
2023-03-19T15:26:03.352Z,9.00
2023-03-19T15:28:53.996Z,11.25
2023-03-19T15:31:37.371Z,8.75
2023-03-19T15:34:24.856Z,5.25
2023-03-19T15:37:00.492Z,9.25
2023-03-19T15:39:32.181Z,7.75
2023-03-19T15:42:02.019Z,7.50
2023-03-19T15:44:40.380Z,8.75
2023-03-19T15:47:12.388Z,8.00
2023-03-19T15:49:43.499Z,9.50
2023-03-19T15:52:14.459Z,8.67
2023-03-19T15:54:42.585Z,5.67
2023-03-19T15:57:14.357Z,8.00
2023-03-19T15:59:42.550Z,5.33
2023-03-19T16:02:33.722Z,11.33
2023-03-19T16:05:22.480Z,12.33
2023-03-19T16:07:56.876Z,16.67
2023-03-19T16:10:36.730Z,10.33
2023-03-19T16:13:32.481Z,9.00
2023-03-19T16:16:03.459Z,10.33
2023-03-19T16:18:42.621Z,5.00
2023-03-19T16:21:15.948Z,9.67
2023-03-19T16:23:46.720Z,7.00
2023-03-19T16:26:26.093Z,10.67
2023-03-19T16:29:26.581Z,8.33
2023-03-19T16:31:59.444Z,5.33
2023-03-19T16:34:34.302Z,15.33
2023-03-19T16:37:03.408Z,15.67
2023-03-19T16:39:31.024Z,12.67
2023-03-19T16:42:11.703Z,9.00
2023-03-19T16:44:44.396Z,10.67
2023-03-19T16:47:13.749Z,7.00
2023-03-19T16:49:40.969Z,22.33
2023-03-19T16:52:16.015Z,25.67
2023-03-19T16:54:43.723Z,20.33
2023-03-19T16:57:15.509Z,23.00
2023-03-19T16:59:43.046Z,24.00
2023-03-19T17:02:15.099Z,39.50
2023-03-19T17:04:42.185Z,41.25
2023-03-19T17:07:14.193Z,46.25
2023-03-19T17:09:41.508Z,56.75
2023-03-19T17:12:14.695Z,47.00
2023-03-19T17:14:43.535Z,50.00
2023-03-19T17:17:18.506Z,45.25
2023-03-19T17:19:46.508Z,38.75
2023-03-19T17:22:14.876Z,31.67
2023-03-19T17:24:42.396Z,30.33
2023-03-19T17:27:11.840Z,31.67
2023-03-19T17:29:39.054Z,25.00
2023-03-19T17:32:10.135Z,28.67
2023-03-19T17:34:40.175Z,26.67
2023-03-19T17:37:13.528Z,21.33
2023-03-19T17:39:42.498Z,21.67
2023-03-19T17:42:19.185Z,24.00
2023-03-19T17:44:46.144Z,32.50
2023-03-19T17:47:13.590Z,38.25
2023-03-19T17:49:42.328Z,34.25
2023-03-19T17:52:17.000Z,36.75
2023-03-19T17:54:44.874Z,36.00
2023-03-19T17:57:13.776Z,38.50
2023-03-19T17:59:41.134Z,36.00
2023-03-19T18:02:24.646Z,33.25
2023-03-19T18:04:52.696Z,33.75
2023-03-19T18:07:20.449Z,32.25
2023-03-19T18:09:47.637Z,39.25
2023-03-19T18:12:15.941Z,38.50
2023-03-19T18:14:43.285Z,33.75
2023-03-19T18:17:18.146Z,39.50
2023-03-19T18:19:50.977Z,42.00
2023-03-19T18:22:21.496Z,44.00
2023-03-19T18:24:48.683Z,60.25
2023-03-19T18:27:16.199Z,76.25
2023-03-19T18:29:44.113Z,60.50
2023-03-19T18:32:16.456Z,52.75
2023-03-19T18:34:43.753Z,56.00
2023-03-19T18:37:16.767Z,65.75
2023-03-19T18:39:44.052Z,108.50
2023-03-19T18:42:12.855Z,104.50
2023-03-19T18:44:39.786Z,122.75
2023-03-19T18:47:15.944Z,154.75
2023-03-19T18:49:43.451Z,117.25
2023-03-19T18:52:14.712Z,112.00
2023-03-19T18:54:42.894Z,110.25
2023-03-19T18:57:12.475Z,113.00
2023-03-19T18:59:39.630Z,144.75
2023-03-19T19:02:27.193Z,153.50
2023-03-19T19:04:54.368Z,131.25
2023-03-19T19:07:21.698Z,129.00
2023-03-19T19:09:48.684Z,110.75
2023-03-19T19:12:18.667Z,101.25
2023-03-19T19:14:46.733Z,77.25
2023-03-19T19:17:24.762Z,91.25
2023-03-19T19:19:52.567Z,62.50
2023-03-19T19:22:20.350Z,94.50
2023-03-19T19:24:47.580Z,88.50
2023-03-19T19:27:21.614Z,92.00
2023-03-19T19:29:50.461Z,78.25
2023-03-19T19:32:25.994Z,76.50
2023-03-19T19:34:53.791Z,82.75
2023-03-19T19:37:23.600Z,109.25
2023-03-19T19:39:51.465Z,82.25
2023-03-19T19:42:21.111Z,79.25
2023-03-19T19:44:54.442Z,75.75
2023-03-19T19:47:22.368Z,83.75
2023-03-19T19:49:49.518Z,96.00
2023-03-19T19:52:19.018Z,101.25
2023-03-19T19:54:46.757Z,101.50
2023-03-19T19:57:24.834Z,91.00
2023-03-19T19:59:53.059Z,94.50
2023-03-19T20:02:23.213Z,89.75
2023-03-19T20:04:51.090Z,103.50
2023-03-19T20:07:18.784Z,105.75
2023-03-19T20:09:46.612Z,97.00
2023-03-19T20:12:23.514Z,101.25
2023-03-19T20:14:51.312Z,60.00
2023-03-19T20:17:21.623Z,96.75
2023-03-19T20:19:49.287Z,85.50
2023-03-19T20:22:17.178Z,93.00
2023-03-19T20:24:45.006Z,81.00
2023-03-19T20:27:26.022Z,85.50
2023-03-19T20:29:54.273Z,78.25
2023-03-19T20:32:28.166Z,78.75
2023-03-19T20:34:55.541Z,88.75
2023-03-19T20:37:23.019Z,80.50
2023-03-19T20:39:50.284Z,77.00
2023-03-19T20:42:18.788Z,61.25
2023-03-19T20:44:46.617Z,70.00
2023-03-19T20:47:20.547Z,72.25
2023-03-19T20:49:48.797Z,61.50
2023-03-19T20:52:16.660Z,73.50
2023-03-19T20:54:44.855Z,71.00
2023-03-19T20:57:14.036Z,64.50
2023-03-19T20:59:43.622Z,62.75
2023-03-19T21:02:17.241Z,78.25
2023-03-19T21:04:45.695Z,70.75
2023-03-19T21:07:27.585Z,67.50
2023-03-19T21:09:56.524Z,67.50
2023-03-19T21:12:32.447Z,65.50
2023-03-19T21:15:00.522Z,65.00
2023-03-19T21:17:28.812Z,65.75
2023-03-19T21:19:56.821Z,60.00
2023-03-19T21:22:28.538Z,60.00
2023-03-19T21:25:23.004Z,55.75
2023-03-19T21:27:53.858Z,53.00
2023-03-19T21:30:22.122Z,53.00
2023-03-19T21:32:49.893Z,57.50
2023-03-19T21:35:19.814Z,57.00
2023-03-19T21:37:47.681Z,56.00
2023-03-19T21:40:29.564Z,56.75
2023-03-19T21:43:01.739Z,50.75
2023-03-19T21:45:31.877Z,54.25
2023-03-19T21:48:21.076Z,47.00
2023-03-19T21:50:50.352Z,50.75
2023-03-19T21:53:19.108Z,48.00
2023-03-19T21:55:46.609Z,54.25
2023-03-19T21:58:20.169Z,52.25
2023-03-19T22:00:48.021Z,56.75
2023-03-19T22:03:20.595Z,55.50
2023-03-19T22:05:49.988Z,58.75
2023-03-19T22:08:20.553Z,56.25
2023-03-19T22:10:53.095Z,56.50
2023-03-19T22:13:23.750Z,50.50
2023-03-19T22:15:52.680Z,52.00
2023-03-19T22:18:20.485Z,46.25
2023-03-19T22:20:48.740Z,45.25
2023-03-19T22:23:18.424Z,46.75
2023-03-19T22:25:50.686Z,50.25
2023-03-19T22:28:25.359Z,26.50
2023-03-19T22:30:52.673Z,45.50
2023-03-19T22:33:22.838Z,48.50
2023-03-19T22:35:51.013Z,50.75
2023-03-19T22:38:19.790Z,52.25
2023-03-19T22:40:49.877Z,48.50
2023-03-19T22:43:32.045Z,48.75
2023-03-19T22:46:08.141Z,53.50
2023-03-19T22:48:35.972Z,48.00
2023-03-19T22:51:04.463Z,50.75
2023-03-19T22:53:36.951Z,49.50
2023-03-19T22:56:04.721Z,51.50
2023-03-19T22:58:33.307Z,50.00
2023-03-19T23:01:00.614Z,54.25
2023-03-19T23:03:30.768Z,53.00
2023-03-19T23:06:00.851Z,58.75
2023-03-19T23:08:28.344Z,55.00
2023-03-19T23:10:55.776Z,62.25
2023-03-19T23:13:23.425Z,57.00
2023-03-19T23:15:54.632Z,66.25
2023-03-19T23:18:26.511Z,76.50
2023-03-19T23:20:53.934Z,71.25
2023-03-19T23:23:21.353Z,66.00
2023-03-19T23:25:49.113Z,78.25
2023-03-19T23:28:23.395Z,76.50
2023-03-19T23:30:51.547Z,76.50
2023-03-19T23:33:22.043Z,56.75
2023-03-19T23:35:49.580Z,86.50
2023-03-19T23:38:17.495Z,69.25
2023-03-19T23:40:44.845Z,75.00
2023-03-19T23:43:22.263Z,72.50
2023-03-19T23:45:51.455Z,71.75
2023-03-19T23:48:34.962Z,67.75
2023-03-19T23:51:02.693Z,76.00
2023-03-19T23:53:30.551Z,79.25
2023-03-19T23:55:59.882Z,63.25
2023-03-19T23:58:32.891Z,65.25
